createdAt,value
2022-10-30T00:01:43.878Z,14.63
2022-10-30T00:04:11.143Z,13.45
2022-10-30T00:06:38.285Z,15.82
2022-10-30T00:09:05.476Z,15.80
2022-10-30T00:11:32.620Z,13.95
2022-10-30T00:13:59.769Z,15.45
2022-10-30T00:16:26.952Z,15.20
2022-10-30T00:18:54.109Z,12.15
2022-10-30T00:21:21.249Z,11.85
2022-10-30T00:23:49.134Z,12.60
2022-10-30T00:26:16.379Z,12.95
2022-10-30T00:28:43.523Z,13.52
2022-10-30T00:31:10.745Z,14.18
2022-10-30T00:33:37.902Z,13.07
2022-10-30T00:36:05.193Z,13.63
2022-10-30T00:38:32.807Z,13.65
2022-10-30T00:40:59.945Z,13.45
2022-10-30T00:43:45.176Z,13.02
2022-10-30T00:46:22.281Z,14.05
2022-10-30T00:48:51.550Z,12.90
2022-10-30T00:51:18.694Z,12.82
2022-10-30T00:53:47.963Z,11.23
2022-10-30T00:56:15.108Z,13.00
2022-10-30T00:58:47.430Z,13.23
2022-10-30T01:01:16.161Z,15.32
2022-10-30T01:03:43.332Z,20.50
2022-10-30T01:06:11.290Z,19.25
2022-10-30T01:08:38.578Z,19.35
2022-10-30T01:11:05.963Z,17.23
2022-10-30T01:13:33.198Z,11.75
2022-10-30T01:16:05.021Z,12.13
2022-10-30T01:19:10.880Z,11.68
2022-10-30T01:21:46.597Z,11.73
2022-10-30T01:24:27.145Z,12.95
2022-10-30T01:27:12.894Z,13.88
2022-10-30T01:29:49.217Z,12.75
2022-10-30T01:32:22.194Z,13.18
2022-10-30T01:34:54.669Z,12.73
2022-10-30T01:37:21.872Z,11.95
2022-10-30T01:39:49.012Z,11.40
2022-10-30T01:42:34.845Z,12.95
2022-10-30T01:45:01.976Z,11.95
2022-10-30T01:47:35.450Z,11.02
2022-10-30T01:50:08.778Z,10.50
2022-10-30T01:52:54.009Z,10.40
2022-10-30T01:55:30.585Z,9.40
2022-10-30T01:58:03.360Z,9.73
2022-10-30T02:00:30.553Z,10.57
2022-10-30T02:02:57.883Z,10.85
2022-10-30T02:05:35.818Z,10.32
2022-10-30T02:08:02.977Z,10.10
2022-10-30T02:10:30.685Z,11.50
2022-10-30T02:12:57.905Z,14.18
2022-10-30T02:15:25.056Z,14.20
2022-10-30T02:17:52.217Z,14.88
2022-10-30T02:20:19.923Z,11.85
2022-10-30T02:22:47.504Z,10.00
2022-10-30T02:25:15.033Z,9.65
2022-10-30T02:27:42.477Z,10.43
2022-10-30T02:30:09.754Z,10.57
2022-10-30T02:32:37.009Z,12.70
2022-10-30T02:35:04.335Z,13.52
2022-10-30T02:37:32.753Z,12.63
2022-10-30T02:39:59.902Z,12.10
2022-10-30T02:42:27.117Z,13.02
2022-10-30T02:44:54.258Z,15.60
2022-10-30T02:47:21.391Z,14.68
2022-10-30T02:49:48.562Z,13.52
2022-10-30T02:52:15.749Z,15.77
2022-10-30T02:54:42.877Z,15.93
2022-10-30T02:57:10.403Z,14.52
2022-10-30T02:59:37.579Z,13.73
2022-10-30T03:02:04.864Z,12.52
2022-10-30T03:04:32.092Z,12.90
2022-10-30T03:06:59.248Z,12.73
2022-10-30T03:09:26.407Z,13.00
2022-10-30T03:11:53.604Z,13.07
2022-10-30T03:14:20.812Z,12.43
2022-10-30T03:16:47.983Z,11.95
2022-10-30T03:19:15.150Z,12.70
2022-10-30T03:21:42.296Z,11.93
2022-10-30T03:24:09.448Z,12.45
2022-10-30T03:26:36.609Z,11.77
2022-10-30T03:29:03.767Z,11.63
2022-10-30T03:31:31.829Z,11.98
2022-10-30T03:33:59.075Z,10.68
2022-10-30T03:36:26.340Z,11.10
2022-10-30T03:38:53.503Z,11.18
2022-10-30T03:41:20.694Z,10.23
2022-10-30T03:43:47.838Z,10.23
2022-10-30T03:46:14.996Z,8.50
2022-10-30T03:48:42.175Z,9.55
2022-10-30T03:51:09.373Z,10.20
2022-10-30T03:53:36.506Z,9.77
2022-10-30T03:56:04.106Z,11.05
2022-10-30T03:58:31.359Z,10.63
2022-10-30T04:01:05.078Z,10.38
2022-10-30T04:03:32.445Z,10.25
2022-10-30T04:05:59.629Z,10.32
2022-10-30T04:08:26.798Z,10.27
2022-10-30T04:10:53.978Z,11.13
2022-10-30T04:13:21.200Z,10.20
2022-10-30T04:15:56.344Z,10.20
2022-10-30T04:18:25.221Z,9.27
2022-10-30T04:20:52.475Z,9.80
2022-10-30T04:23:19.989Z,9.55
2022-10-30T04:25:47.137Z,9.55
2022-10-30T04:28:14.625Z,10.93
2022-10-30T04:30:42.110Z,9.40
2022-10-30T04:33:12.256Z,9.73
2022-10-30T04:35:39.462Z,9.80
2022-10-30T04:38:07.531Z,10.20
2022-10-30T04:40:35.466Z,10.20
2022-10-30T04:43:05.471Z,12.40
2022-10-30T04:45:32.759Z,24.88
2022-10-30T04:48:13.555Z,16.85
2022-10-30T04:50:40.779Z,11.40
2022-10-30T04:53:09.574Z,16.08
2022-10-30T04:55:36.774Z,13.70
2022-10-30T04:58:03.964Z,12.25
2022-10-30T05:00:31.634Z,11.27
2022-10-30T05:03:00.149Z,11.65
2022-10-30T05:05:27.631Z,11.55
2022-10-30T05:07:54.936Z,9.82
2022-10-30T05:10:22.175Z,10.15
2022-10-30T05:12:49.363Z,9.77
2022-10-30T05:15:16.492Z,9.70
2022-10-30T05:17:43.802Z,9.70
2022-10-30T05:20:14.733Z,9.77
2022-10-30T05:22:43.577Z,9.50
2022-10-30T05:25:10.722Z,10.20
2022-10-30T05:27:37.876Z,19.02
2022-10-30T05:30:05.215Z,22.25
2022-10-30T05:32:32.371Z,22.45
2022-10-30T05:34:59.525Z,17.50
2022-10-30T05:37:26.703Z,18.63
2022-10-30T05:39:53.863Z,16.67
2022-10-30T05:42:20.999Z,18.02
2022-10-30T05:45:00.452Z,17.75
2022-10-30T05:47:28.409Z,12.75
2022-10-30T05:49:55.577Z,18.65
2022-10-30T05:52:22.723Z,18.85
2022-10-30T05:54:49.905Z,17.17
2022-10-30T05:57:17.079Z,15.80
2022-10-30T05:59:44.208Z,15.30
2022-10-30T06:02:11.403Z,16.77
2022-10-30T06:04:38.613Z,19.85
2022-10-30T06:07:05.802Z,21.15
2022-10-30T06:09:32.936Z,18.90
2022-10-30T06:12:00.129Z,20.30
2022-10-30T06:14:27.260Z,20.30
2022-10-30T06:16:54.399Z,20.15
2022-10-30T06:19:21.572Z,17.90
2022-10-30T06:21:48.776Z,17.08
2022-10-30T06:24:15.962Z,13.77
2022-10-30T06:26:43.144Z,16.10
2022-10-30T06:29:10.281Z,17.33
2022-10-30T06:31:37.425Z,19.70
2022-10-30T06:34:05.443Z,19.92
2022-10-30T06:36:32.685Z,20.83
2022-10-30T06:38:59.928Z,21.20
2022-10-30T06:41:30.241Z,21.75
2022-10-30T06:43:57.880Z,22.92
2022-10-30T06:46:27.503Z,22.48
2022-10-30T06:48:58.007Z,23.33
2022-10-30T06:51:25.156Z,21.95
2022-10-30T06:53:52.298Z,26.38
2022-10-30T06:56:19.460Z,28.33
2022-10-30T06:58:46.600Z,24.95
2022-10-30T07:01:13.922Z,20.90
2022-10-30T07:03:41.214Z,19.75
2022-10-30T07:06:08.428Z,22.88
2022-10-30T07:08:35.571Z,23.33
2022-10-30T07:11:02.752Z,25.13
2022-10-30T07:13:29.945Z,23.42
2022-10-30T07:15:57.084Z,22.95
2022-10-30T07:18:24.292Z,21.83
2022-10-30T07:20:55.114Z,20.80
2022-10-30T07:23:22.253Z,20.08
2022-10-30T07:25:49.459Z,24.90
2022-10-30T07:28:16.618Z,22.17
2022-10-30T07:30:43.771Z,20.27
2022-10-30T07:33:10.945Z,18.38
2022-10-30T07:35:38.104Z,14.38
2022-10-30T07:38:05.764Z,14.77
2022-10-30T07:40:33.304Z,12.18
2022-10-30T07:43:01.363Z,11.25
2022-10-30T07:45:28.773Z,10.70
2022-10-30T07:47:56.361Z,8.80
2022-10-30T07:50:24.029Z,8.82
2022-10-30T07:52:51.172Z,7.68
2022-10-30T07:55:18.345Z,6.93
2022-10-30T07:57:45.561Z,6.72
2022-10-30T08:00:13.544Z,6.55
2022-10-30T08:02:40.951Z,6.60
2022-10-30T08:05:08.401Z,6.10
2022-10-30T08:07:36.637Z,6.97
2022-10-30T08:10:04.117Z,7.22
2022-10-30T08:12:32.800Z,5.88
2022-10-30T08:14:59.944Z,7.30
2022-10-30T08:17:27.143Z,6.18
2022-10-30T08:19:55.375Z,6.07
2022-10-30T08:22:22.517Z,6.13
2022-10-30T08:24:49.699Z,8.02
2022-10-30T08:27:16.861Z,8.90
2022-10-30T08:29:43.996Z,9.15
2022-10-30T08:32:11.194Z,7.40
2022-10-30T08:34:38.338Z,6.47
2022-10-30T08:37:05.813Z,6.80
2022-10-30T08:39:33.003Z,5.78
2022-10-30T08:42:00.336Z,5.88
2022-10-30T08:44:27.524Z,5.90
2022-10-30T08:46:54.859Z,5.82
2022-10-30T08:49:22.030Z,7.97
2022-10-30T08:51:49.195Z,5.65
2022-10-30T08:54:16.362Z,3.92
2022-10-30T08:56:43.523Z,4.25
2022-10-30T08:59:10.693Z,4.30
2022-10-30T09:01:37.964Z,8.15
2022-10-30T09:04:05.327Z,15.27
2022-10-30T09:06:32.492Z,8.80
2022-10-30T09:08:59.916Z,16.45
2022-10-30T09:11:27.121Z,10.95
2022-10-30T09:13:54.279Z,3.95
2022-10-30T09:16:21.441Z,4.40
2022-10-30T09:18:48.577Z,4.38
2022-10-30T09:21:15.773Z,30.95
2022-10-30T09:23:43.798Z,13.68
2022-10-30T09:26:13.449Z,4.18
2022-10-30T09:28:42.616Z,4.15
2022-10-30T09:31:09.794Z,8.10
2022-10-30T09:33:36.942Z,4.28
2022-10-30T09:36:04.145Z,3.95
2022-10-30T09:38:31.309Z,3.75
2022-10-30T09:41:05.261Z,4.53
2022-10-30T09:43:32.411Z,10.23
2022-10-30T09:46:02.548Z,5.75
2022-10-30T09:48:39.537Z,4.22
2022-10-30T09:51:10.605Z,2.88
2022-10-30T09:53:46.765Z,3.20
2022-10-30T09:56:18.699Z,2.97
2022-10-30T09:58:51.777Z,3.53
2022-10-30T10:01:21.854Z,2.88
2022-10-30T10:06:24.949Z,3.13
2022-10-30T10:08:54.039Z,3.13
2022-10-30T10:11:26.374Z,2.90
2022-10-30T10:14:19.912Z,3.08
2022-10-30T10:16:49.384Z,2.65
2022-10-30T10:19:42.808Z,3.95
2022-10-30T10:22:31.394Z,2.78
2022-10-30T10:24:58.573Z,2.80
2022-10-30T10:27:25.682Z,2.90
2022-10-30T10:29:55.814Z,3.03
2022-10-30T10:32:46.131Z,3.00
2022-10-30T10:35:32.108Z,2.75
2022-10-30T10:38:05.444Z,2.50
2022-10-30T10:40:36.811Z,2.80
2022-10-30T10:43:10.028Z,3.08
2022-10-30T10:45:50.863Z,3.13
2022-10-30T10:48:18.214Z,3.58
2022-10-30T10:50:49.680Z,2.83
2022-10-30T10:53:28.493Z,2.80
2022-10-30T10:55:57.612Z,2.55
2022-10-30T10:58:43.607Z,2.33
2022-10-30T11:01:21.840Z,2.40
2022-10-30T11:03:57.206Z,2.40
2022-10-30T11:06:36.988Z,2.10
2022-10-30T11:09:30.562Z,2.53
2022-10-30T11:11:57.685Z,2.58
2022-10-30T11:14:25.678Z,2.50
2022-10-30T11:16:55.898Z,2.30
2022-10-30T11:19:23.050Z,2.47
2022-10-30T11:21:50.719Z,2.10
2022-10-30T11:24:31.093Z,2.78
2022-10-30T11:26:58.817Z,2.33
2022-10-30T11:29:29.702Z,2.28
2022-10-30T11:32:03.581Z,2.10
2022-10-30T11:34:33.813Z,2.40
2022-10-30T11:37:01.023Z,2.50
2022-10-30T11:39:29.180Z,2.40
2022-10-30T11:42:14.855Z,2.55
2022-10-30T11:44:42.456Z,2.40
2022-10-30T11:47:09.751Z,2.03
2022-10-30T11:49:41.966Z,1.95
2022-10-30T11:52:09.196Z,2.50
2022-10-30T11:54:37.190Z,2.20
2022-10-30T11:57:04.383Z,2.38
2022-10-30T11:59:31.642Z,1.95
2022-10-30T12:01:59.766Z,2.45
2022-10-30T12:04:27.554Z,2.45
2022-10-30T12:07:10.857Z,2.33
2022-10-30T12:09:44.568Z,2.20
2022-10-30T12:12:12.624Z,2.47
2022-10-30T12:14:39.801Z,2.50
2022-10-30T12:17:06.969Z,2.55
2022-10-30T12:19:34.187Z,1.92
2022-10-30T12:22:01.546Z,1.90
2022-10-30T12:24:28.697Z,2.03
2022-10-30T12:26:56.244Z,1.95
2022-10-30T12:29:36.475Z,2.40
2022-10-30T12:32:20.940Z,2.40
2022-10-30T12:35:14.180Z,2.40
2022-10-30T12:37:42.368Z,2.63
2022-10-30T12:40:09.662Z,2.20
2022-10-30T12:42:38.280Z,2.38
2022-10-30T12:45:05.442Z,1.95
2022-10-30T12:47:32.589Z,2.05
2022-10-30T12:52:36.988Z,2.20
2022-10-30T12:55:19.353Z,2.53
2022-10-30T12:58:06.767Z,2.47
2022-10-30T13:00:35.312Z,2.55
2022-10-30T13:03:11.759Z,2.22
2022-10-30T13:05:42.836Z,2.10
2022-10-30T13:08:28.864Z,2.45
2022-10-30T13:11:03.648Z,2.40
2022-10-30T13:13:56.911Z,2.60
2022-10-30T13:16:27.461Z,2.70
2022-10-30T13:18:55.995Z,2.58
2022-10-30T13:21:33.099Z,2.45
2022-10-30T13:24:26.621Z,2.78
2022-10-30T13:26:58.214Z,2.25
2022-10-30T13:29:31.576Z,2.78
2022-10-30T13:32:05.197Z,2.72
2022-10-30T13:34:38.483Z,2.80
2022-10-30T13:37:14.827Z,2.75
2022-10-30T13:39:44.593Z,2.97
2022-10-30T13:42:11.756Z,2.58
2022-10-30T13:44:50.956Z,3.33
2022-10-30T13:47:28.414Z,2.53
2022-10-30T13:49:55.588Z,2.63
2022-10-30T13:52:23.232Z,3.20
2022-10-30T13:54:50.423Z,3.50
2022-10-30T13:57:17.589Z,3.97
2022-10-30T13:59:47.730Z,3.22
2022-10-30T14:02:17.770Z,3.08
2022-10-30T14:04:54.137Z,3.17
2022-10-30T14:07:27.241Z,3.88
2022-10-30T14:10:02.177Z,2.95
2022-10-30T14:12:48.031Z,3.13
2022-10-30T14:15:20.327Z,3.08
2022-10-30T14:18:06.451Z,3.20
2022-10-30T14:20:33.597Z,2.92
2022-10-30T14:23:07.935Z,2.83
2022-10-30T14:25:35.209Z,4.45
2022-10-30T14:28:02.720Z,5.90
2022-10-30T14:30:30.084Z,6.20
2022-10-30T14:32:57.239Z,5.68
2022-10-30T14:35:28.591Z,5.72
2022-10-30T14:37:57.086Z,7.00
2022-10-30T14:40:43.038Z,5.90
2022-10-30T14:43:11.019Z,7.20
2022-10-30T14:45:41.212Z,6.80
2022-10-30T14:48:09.123Z,6.50
2022-10-30T14:50:36.285Z,6.15
2022-10-30T14:53:06.456Z,6.75
2022-10-30T14:55:53.920Z,7.32
2022-10-30T14:58:27.574Z,8.75
2022-10-30T15:00:58.405Z,8.50
2022-10-30T15:03:25.548Z,10.43
2022-10-30T15:05:59.583Z,8.85
2022-10-30T15:08:32.843Z,9.13
2022-10-30T15:11:02.853Z,7.20
2022-10-30T15:13:30.022Z,7.03
2022-10-30T15:16:00.769Z,6.85
2022-10-30T15:18:30.513Z,6.20
2022-10-30T15:20:58.215Z,6.20
2022-10-30T15:23:26.180Z,5.97
2022-10-30T15:25:53.747Z,5.68
2022-10-30T15:28:21.464Z,6.05
2022-10-30T15:31:01.413Z,5.80
2022-10-30T15:33:30.367Z,6.90
2022-10-30T15:35:57.673Z,7.78
2022-10-30T15:38:25.064Z,7.95
2022-10-30T15:40:52.234Z,8.52
2022-10-30T15:43:19.370Z,8.50
2022-10-30T15:45:46.927Z,8.35
2022-10-30T15:48:20.093Z,9.88
2022-10-30T15:50:53.385Z,10.10
2022-10-30T15:53:21.223Z,9.45
2022-10-30T15:55:48.461Z,9.18
2022-10-30T15:58:19.677Z,10.68
2022-10-30T16:00:55.422Z,10.07
2022-10-30T16:03:24.411Z,10.73
2022-10-30T16:05:51.613Z,10.52
2022-10-30T16:08:22.642Z,11.23
2022-10-30T16:10:50.103Z,12.65
2022-10-30T16:13:18.383Z,14.75
2022-10-30T16:15:48.420Z,13.60
2022-10-30T16:18:25.949Z,16.52
2022-10-30T16:20:53.881Z,16.00
2022-10-30T16:23:21.175Z,14.50
2022-10-30T16:25:48.568Z,13.82
2022-10-30T16:28:25.773Z,16.70
2022-10-30T16:30:52.983Z,18.55
2022-10-30T16:33:22.799Z,18.33
2022-10-30T16:35:54.703Z,17.67
2022-10-30T16:38:23.273Z,19.63
2022-10-30T16:40:50.389Z,18.17
2022-10-30T16:43:28.458Z,18.95
2022-10-30T16:45:55.861Z,20.90
2022-10-30T16:48:28.087Z,24.67
2022-10-30T16:51:01.872Z,29.65
2022-10-30T16:53:29.049Z,29.63
2022-10-30T16:55:56.994Z,30.38
2022-10-30T16:58:31.089Z,26.02
2022-10-30T17:01:02.762Z,25.33
2022-10-30T17:03:29.950Z,37.75
2022-10-30T17:06:07.015Z,29.02
2022-10-30T17:08:35.910Z,30.73
2022-10-30T17:11:04.704Z,51.00
2022-10-30T17:13:36.147Z,45.05
2022-10-30T17:16:21.910Z,41.95
2022-10-30T17:18:52.040Z,43.45
2022-10-30T17:21:22.836Z,37.13
2022-10-30T17:23:50.621Z,45.15
2022-10-30T17:26:18.592Z,41.25
2022-10-30T17:28:45.917Z,34.90
2022-10-30T17:31:19.407Z,31.27
2022-10-30T17:33:46.847Z,30.40
2022-10-30T17:36:13.988Z,30.42
2022-10-30T17:38:41.251Z,36.58
2022-10-30T17:41:12.385Z,46.25
2022-10-30T17:43:49.465Z,45.08
2022-10-30T17:46:20.066Z,50.65
2022-10-30T17:48:47.817Z,51.03
2022-10-30T17:51:15.054Z,50.65
2022-10-30T17:53:42.340Z,49.97
2022-10-30T17:56:14.077Z,48.90
2022-10-30T17:58:41.262Z,47.60
2022-10-30T18:01:08.441Z,48.55
2022-10-30T18:03:36.865Z,59.17
2022-10-30T18:06:04.452Z,50.60
2022-10-30T18:08:31.841Z,54.75
2022-10-30T18:10:58.993Z,49.30
2022-10-30T18:13:26.152Z,48.45
2022-10-30T18:15:54.124Z,52.95
2022-10-30T18:18:21.270Z,57.05
2022-10-30T18:20:48.446Z,49.17
2022-10-30T18:23:50.346Z,60.17
2022-10-30T18:26:07.151Z,87.13
2022-10-30T18:28:34.274Z,75.32
2022-10-30T18:31:01.794Z,55.10
2022-10-30T18:33:29.040Z,48.10
2022-10-30T18:35:57.512Z,43.17
2022-10-30T18:38:24.694Z,36.05
2022-10-30T18:40:52.037Z,35.50
2022-10-30T18:43:20.677Z,36.45
2022-10-30T18:45:47.816Z,36.22
2022-10-30T18:48:14.973Z,39.47
2022-10-30T18:50:43.055Z,39.03
2022-10-30T18:53:19.022Z,38.05
2022-10-30T18:55:46.200Z,41.67
2022-10-30T18:58:13.374Z,40.00
2022-10-30T19:01:09.868Z,42.50
2022-10-30T19:03:27.954Z,41.50
2022-10-30T19:05:55.370Z,39.63
2022-10-30T19:08:22.498Z,41.20
2022-10-30T19:10:49.666Z,39.67
2022-10-30T19:13:19.392Z,41.00
2022-10-30T19:15:47.715Z,43.65
2022-10-30T19:18:14.944Z,48.80
2022-10-30T19:21:03.347Z,48.67
2022-10-30T19:23:29.333Z,47.35
2022-10-30T19:25:56.955Z,46.53
2022-10-30T19:28:25.703Z,44.83
2022-10-30T19:30:54.691Z,46.20
2022-10-30T19:33:22.303Z,45.92
2022-10-30T19:35:56.020Z,43.88
2022-10-30T19:38:23.288Z,43.30
2022-10-30T19:40:50.465Z,43.15
2022-10-30T19:43:17.607Z,41.03
2022-10-30T19:45:44.946Z,46.58
2022-10-30T19:48:24.721Z,46.58
2022-10-30T19:50:56.774Z,40.53
2022-10-30T19:53:23.917Z,42.92
2022-10-30T19:55:51.080Z,45.70
2022-10-30T19:58:22.152Z,44.45
2022-10-30T20:00:55.880Z,46.33
2022-10-30T20:03:23.096Z,45.67
2022-10-30T20:05:50.570Z,41.13
2022-10-30T20:08:18.706Z,42.28
2022-10-30T20:10:58.384Z,39.95
2022-10-30T20:13:25.663Z,41.78
2022-10-30T20:15:53.201Z,42.03
2022-10-30T20:18:21.145Z,39.15
2022-10-30T20:20:52.014Z,42.53
2022-10-30T20:23:20.199Z,46.22
2022-10-30T20:25:47.707Z,42.97
2022-10-30T20:28:33.583Z,41.25
2022-10-30T20:31:00.848Z,39.35
2022-10-30T20:33:28.008Z,38.90
2022-10-30T20:35:55.288Z,39.10
2022-10-30T20:38:26.245Z,40.78
2022-10-30T20:40:53.617Z,38.53
2022-10-30T20:43:21.129Z,39.58
2022-10-30T20:45:48.348Z,38.90
2022-10-30T20:48:15.530Z,43.40
2022-10-30T20:50:46.425Z,52.30
2022-10-30T20:53:16.338Z,49.78
2022-10-30T20:55:43.548Z,48.15
2022-10-30T20:58:10.713Z,46.80
2022-10-30T21:00:37.887Z,46.13
2022-10-30T21:03:05.425Z,45.13
2022-10-30T21:05:43.680Z,46.15
2022-10-30T21:08:11.857Z,45.17
2022-10-30T21:10:39.166Z,42.03
2022-10-30T21:13:08.957Z,41.92
2022-10-30T21:15:44.456Z,44.83
2022-10-30T21:18:12.913Z,47.42
2022-10-30T21:20:41.017Z,40.17
2022-10-30T21:23:08.335Z,35.08
2022-10-30T21:25:35.811Z,33.78
2022-10-30T21:28:03.007Z,32.50
2022-10-30T21:30:30.253Z,30.30
2022-10-30T21:32:57.751Z,28.10
2022-10-30T21:35:25.146Z,28.20
2022-10-30T21:37:52.309Z,29.67
2022-10-30T21:40:19.431Z,27.95
2022-10-30T21:42:49.328Z,23.15
2022-10-30T21:45:16.549Z,23.67
2022-10-30T21:47:43.709Z,18.55
2022-10-30T21:50:12.932Z,17.35
2022-10-30T21:52:40.573Z,18.50
2022-10-30T21:55:07.930Z,22.23
2022-10-30T21:57:35.103Z,18.95
2022-10-30T22:00:05.797Z,18.85
2022-10-30T22:02:34.612Z,17.05
2022-10-30T22:05:01.792Z,18.40
2022-10-30T22:07:28.984Z,17.27
2022-10-30T22:09:56.177Z,23.25
2022-10-30T22:12:23.351Z,20.27
2022-10-30T22:14:50.527Z,18.35
2022-10-30T22:17:17.666Z,19.80
2022-10-30T22:19:44.838Z,17.55
2022-10-30T22:22:12.039Z,17.52
2022-10-30T22:24:39.165Z,15.38
2022-10-30T22:27:06.294Z,16.15
2022-10-30T22:29:33.455Z,16.15
2022-10-30T22:32:00.579Z,19.35
2022-10-30T22:34:27.724Z,23.38
2022-10-30T22:36:54.901Z,40.78
2022-10-30T22:39:22.097Z,22.23
2022-10-30T22:41:49.305Z,20.88
2022-10-30T22:44:19.657Z,22.25
2022-10-30T22:46:46.787Z,19.42
2022-10-30T22:49:13.971Z,19.85
2022-10-30T22:51:41.229Z,22.27
2022-10-30T22:54:09.020Z,23.35
2022-10-30T22:56:36.404Z,27.95
2022-10-30T22:59:04.414Z,21.65
2022-10-30T23:01:32.639Z,14.10
2022-10-30T23:04:00.474Z,19.30
2022-10-30T23:06:27.950Z,20.85
2022-10-30T23:08:55.634Z,20.92
2022-10-30T23:11:22.786Z,21.17
2022-10-30T23:13:50.056Z,21.88
2022-10-30T23:16:18.409Z,20.80
2022-10-30T23:18:45.609Z,20.52
2022-10-30T23:21:13.751Z,17.10
2022-10-30T23:23:40.985Z,16.90
2022-10-30T23:26:12.008Z,15.60
2022-10-30T23:28:39.164Z,14.68
2022-10-30T23:31:25.793Z,14.55
2022-10-30T23:33:53.518Z,13.23
2022-10-30T23:36:20.791Z,14.52
2022-10-30T23:38:51.980Z,13.30
2022-10-30T23:41:19.666Z,13.38
2022-10-30T23:43:46.803Z,13.57
2022-10-30T23:46:13.934Z,12.77
2022-10-30T23:48:41.089Z,12.18
2022-10-30T23:51:08.440Z,12.23
2022-10-30T23:53:35.703Z,12.20
2022-10-30T23:56:02.896Z,12.75
2022-10-30T23:58:30.016Z,11.27
